createdAt,value
2023-02-09T00:00:02.412Z,98980.94
2023-02-09T00:02:33.707Z,98979.34
2023-02-09T00:05:01.613Z,98967.97
2023-02-09T00:07:29.536Z,98975.81
2023-02-09T00:09:57.727Z,98978.53
2023-02-09T00:12:43.093Z,98979.50
2023-02-09T00:15:11.279Z,98981.09
2023-02-09T00:17:40.646Z,98972.41
2023-02-09T00:20:09.174Z,98980.31
2023-02-09T00:22:37.132Z,98971.47
2023-02-09T00:25:06.017Z,98975.09
2023-02-09T00:27:35.742Z,98970.69
2023-02-09T00:30:03.991Z,98970.69
2023-02-09T00:32:32.868Z,98963.81
2023-02-09T00:35:02.261Z,98961.22
2023-02-09T00:37:30.246Z,98958.44
2023-02-09T00:39:58.440Z,98963.91
2023-02-09T00:42:26.379Z,98963.75
2023-02-09T00:44:54.350Z,98964.59
2023-02-09T00:47:22.516Z,98956.81
2023-02-09T00:49:50.420Z,98950.63
2023-02-09T00:52:19.836Z,98957.84
2023-02-09T00:54:48.078Z,98957.81
2023-02-09T00:57:15.974Z,98964.75
2023-02-09T00:59:43.894Z,98958.81
2023-02-09T01:02:11.795Z,98956.13
2023-02-09T01:04:40.120Z,98952.47
2023-02-09T01:07:08.393Z,98960.41
2023-02-09T01:09:37.761Z,98966.53
2023-02-09T01:12:05.809Z,98957.13
2023-02-09T01:14:34.025Z,98955.38
2023-02-09T01:17:02.108Z,98957.13
2023-02-09T01:19:30.122Z,98958.94
2023-02-09T01:21:58.022Z,98959.03
2023-02-09T01:24:25.924Z,98956.31
2023-02-09T01:26:55.201Z,98963.28
2023-02-09T01:29:23.119Z,98958.13
2023-02-09T01:31:51.366Z,98958.19
2023-02-09T01:34:19.798Z,98961.72
2023-02-09T01:36:48.461Z,98957.38
2023-02-09T01:39:16.485Z,98954.00
2023-02-09T01:41:44.756Z,98949.66
2023-02-09T01:44:49.473Z,98945.28
2023-02-09T01:47:20.034Z,98954.72
2023-02-09T01:49:48.734Z,98948.78
2023-02-09T01:52:18.707Z,98957.75
2023-02-09T01:54:47.449Z,98955.81
2023-02-09T01:57:16.687Z,98962.25
2023-02-09T01:59:45.733Z,98962.09
2023-02-09T02:02:13.619Z,98955.91
2023-02-09T02:04:43.514Z,98954.38
2023-02-09T02:07:13.742Z,98948.94
2023-02-09T02:09:43.111Z,98951.69
2023-02-09T02:12:11.393Z,98936.84
2023-02-09T02:14:40.245Z,98936.09
2023-02-09T02:17:14.137Z,98939.59
2023-02-09T02:20:26.816Z,98945.00
2023-02-09T02:23:02.100Z,98951.94
2023-02-09T02:26:00.594Z,98948.25
2023-02-09T02:28:34.941Z,98947.53
2023-02-09T02:31:23.519Z,98942.47
2023-02-09T02:33:55.426Z,98946.84
2023-02-09T02:36:26.351Z,98946.84
2023-02-09T02:38:56.042Z,98939.84
2023-02-09T02:41:27.971Z,98947.75
2023-02-09T02:43:58.559Z,98956.50
2023-02-09T02:46:29.995Z,98948.59
2023-02-09T02:49:01.885Z,98946.03
2023-02-09T02:51:31.529Z,98942.59
2023-02-09T02:54:01.604Z,98946.25
2023-02-09T02:56:30.577Z,98945.38
2023-02-09T02:58:59.849Z,98945.34
2023-02-09T03:01:29.128Z,98948.09
2023-02-09T03:03:57.035Z,98944.47
2023-02-09T03:06:26.386Z,98953.28
2023-02-09T03:08:55.880Z,98945.38
2023-02-09T03:11:25.418Z,98958.56
2023-02-09T03:14:02.184Z,98936.78
2023-02-09T03:16:33.756Z,98949.06
2023-02-09T03:19:09.740Z,98937.63
2023-02-09T03:21:44.116Z,98936.94
2023-02-09T03:24:14.203Z,98937.81
2023-02-09T03:26:44.277Z,98939.50
2023-02-09T03:29:24.370Z,98939.56
2023-02-09T03:31:52.391Z,98937.91
2023-02-09T03:34:20.427Z,98937.06
2023-02-09T03:36:52.742Z,98940.44
2023-02-09T03:39:20.843Z,98940.47
2023-02-09T03:41:49.047Z,98943.22
2023-02-09T03:44:29.465Z,98930.09
2023-02-09T03:46:58.316Z,98947.59
2023-02-09T03:49:26.421Z,98939.72
2023-02-09T03:51:55.739Z,98940.63
2023-02-09T03:54:23.778Z,98946.72
2023-02-09T03:56:51.738Z,98939.66
2023-02-09T03:59:20.982Z,98934.41
2023-02-09T04:01:49.338Z,98942.50
2023-02-09T04:04:17.413Z,98944.97
2023-02-09T04:06:45.322Z,98931.13
2023-02-09T04:09:14.972Z,98926.66
2023-02-09T04:11:43.532Z,98931.06
2023-02-09T04:14:11.624Z,98932.00
2023-02-09T04:16:39.613Z,98923.91
2023-02-09T04:19:09.583Z,98925.94
2023-02-09T04:21:37.592Z,98913.56
2023-02-09T04:24:05.738Z,98918.78
2023-02-09T04:26:35.261Z,98916.94
2023-02-09T04:29:03.341Z,98922.28
2023-02-09T04:31:31.794Z,98918.84
2023-02-09T04:34:00.228Z,98914.59
2023-02-09T04:36:28.250Z,98911.25
2023-02-09T04:38:56.180Z,98921.72
2023-02-09T04:41:24.163Z,98909.47
2023-02-09T04:43:53.514Z,98906.19
2023-02-09T04:46:21.788Z,98900.72
2023-02-09T04:48:49.900Z,98904.25
2023-02-09T04:51:17.994Z,98902.56
2023-02-09T04:53:46.289Z,98892.13
2023-02-09T04:56:15.309Z,98892.22
2023-02-09T04:59:00.918Z,98893.88
2023-02-09T05:01:30.344Z,98887.84
2023-02-09T05:03:58.514Z,98894.91
2023-02-09T05:06:26.540Z,98885.25
2023-02-09T05:08:54.501Z,98881.03
2023-02-09T05:11:24.225Z,98896.75
2023-02-09T05:13:53.460Z,98895.06
2023-02-09T05:16:21.459Z,98901.09
2023-02-09T05:18:51.559Z,98891.38
2023-02-09T05:21:19.571Z,98887.22
2023-02-09T05:23:47.834Z,98885.22
2023-02-09T05:26:15.786Z,98870.41
2023-02-09T05:28:43.809Z,98867.91
2023-02-09T05:31:11.796Z,98875.72
2023-02-09T05:33:39.845Z,98874.09
2023-02-09T05:36:12.745Z,98866.13
2023-02-09T05:38:40.847Z,98877.66
2023-02-09T05:41:10.263Z,98882.78
2023-02-09T05:43:38.348Z,98882.75
2023-02-09T05:46:08.480Z,98881.97
2023-02-09T05:48:37.478Z,98869.72
2023-02-09T05:51:06.012Z,98879.25
2023-02-09T05:53:35.374Z,98893.22
2023-02-09T05:56:03.337Z,98889.91
2023-02-09T05:58:31.358Z,98890.66
2023-02-09T06:00:59.304Z,98893.28
2023-02-09T06:03:27.819Z,98883.78
2023-02-09T06:05:56.124Z,98897.78
2023-02-09T06:08:24.094Z,98896.78
2023-02-09T06:10:53.490Z,98907.38
2023-02-09T06:13:21.685Z,98907.41
2023-02-09T06:15:49.691Z,98908.34
2023-02-09T06:18:17.981Z,98903.00
2023-02-09T06:20:46.259Z,98900.50
2023-02-09T06:23:14.399Z,98898.84
2023-02-09T06:25:42.716Z,98900.63
2023-02-09T06:28:12.218Z,98897.22
2023-02-09T06:30:40.662Z,98897.16
2023-02-09T06:33:19.455Z,98890.25
2023-02-09T06:35:52.492Z,98882.38
2023-02-09T06:38:20.691Z,98879.84
2023-02-09T06:40:48.818Z,98892.91
2023-02-09T06:43:33.278Z,98897.28
2023-02-09T06:46:07.088Z,98898.22
2023-02-09T06:48:35.152Z,98892.94
2023-02-09T06:51:03.384Z,98882.41
2023-02-09T06:53:31.732Z,98892.88
2023-02-09T06:56:02.948Z,98885.09
2023-02-09T06:58:32.726Z,98875.53
2023-02-09T07:01:03.343Z,98875.50
2023-02-09T07:03:31.816Z,98888.53
2023-02-09T07:06:04.560Z,98892.13
2023-02-09T07:08:32.602Z,98896.47
2023-02-09T07:11:02.986Z,98897.22
2023-02-09T07:13:32.950Z,98899.00
2023-02-09T07:16:02.059Z,98903.50
2023-02-09T07:18:30.498Z,98906.78
2023-02-09T07:20:59.075Z,98922.38
2023-02-09T07:23:27.023Z,98925.84
2023-02-09T07:25:55.139Z,98939.00
2023-02-09T07:28:23.170Z,98940.63
2023-02-09T07:30:53.947Z,98943.91
2023-02-09T07:33:22.255Z,98934.38
2023-02-09T07:35:50.242Z,98932.41
2023-02-09T07:38:18.464Z,98939.31
2023-02-09T07:40:47.056Z,98933.22
2023-02-09T07:43:15.497Z,98933.13
2023-02-09T07:45:44.117Z,98931.53
2023-02-09T07:48:14.087Z,98933.22
2023-02-09T07:50:42.076Z,98929.59
2023-02-09T07:53:10.222Z,98932.13
2023-02-09T07:55:38.452Z,98939.19
2023-02-09T07:58:08.207Z,98933.88
2023-02-09T08:00:36.247Z,98922.50
2023-02-09T08:03:05.075Z,98913.75
2023-02-09T08:05:36.181Z,98904.84
2023-02-09T08:08:07.255Z,98911.66
2023-02-09T08:10:35.533Z,98921.28
2023-02-09T08:13:03.981Z,98911.66
2023-02-09T08:15:34.832Z,98906.47
2023-02-09T08:18:04.209Z,98898.78
2023-02-09T08:20:32.747Z,98885.34
2023-02-09T08:23:05.053Z,98874.78
2023-02-09T08:25:34.953Z,98900.72
2023-02-09T08:28:03.793Z,98919.09
2023-02-09T08:30:31.847Z,98920.50
2023-02-09T08:32:59.857Z,98923.16
2023-02-09T08:35:30.317Z,98922.09
2023-02-09T08:38:07.679Z,98914.38
2023-02-09T08:40:45.441Z,98915.50
2023-02-09T08:43:17.361Z,98910.16
2023-02-09T08:45:51.419Z,98905.41
2023-02-09T08:48:26.149Z,98899.44
2023-02-09T08:50:58.200Z,98916.63
2023-02-09T08:53:28.278Z,98910.34
2023-02-09T08:55:56.826Z,98917.38
2023-02-09T08:58:25.349Z,98919.41
2023-02-09T09:00:57.022Z,98928.06
2023-02-09T09:03:27.834Z,98931.69
2023-02-09T09:05:57.910Z,98934.53
2023-02-09T09:08:27.289Z,98952.13
2023-02-09T09:10:55.242Z,98955.47
2023-02-09T09:13:27.330Z,98956.97
2023-02-09T09:15:56.175Z,98950.84
2023-02-09T09:18:24.398Z,98955.75
2023-02-09T09:20:52.698Z,98945.19
2023-02-09T09:23:21.183Z,98943.84
2023-02-09T09:25:50.864Z,98948.59
2023-02-09T09:28:19.329Z,98956.63
2023-02-09T09:30:47.400Z,98956.63
2023-02-09T09:33:15.383Z,98969.41
2023-02-09T09:35:45.461Z,98977.03
2023-02-09T09:38:13.622Z,98972.19
2023-02-09T09:40:42.856Z,98963.41
2023-02-09T09:43:16.690Z,98963.09
2023-02-09T09:45:46.156Z,98968.19
2023-02-09T09:48:20.965Z,98977.09
2023-02-09T09:50:49.045Z,98981.63
2023-02-09T09:53:19.581Z,98977.63
2023-02-09T09:55:47.910Z,98970.91
2023-02-09T09:58:19.224Z,98962.88
2023-02-09T10:00:47.412Z,98972.16
2023-02-09T10:03:16.322Z,98974.69
2023-02-09T10:05:44.556Z,98974.44
2023-02-09T10:08:14.864Z,98976.69
2023-02-09T10:10:46.234Z,98989.88
2023-02-09T10:13:19.681Z,98988.22
2023-02-09T10:15:48.845Z,98994.41
2023-02-09T10:18:17.065Z,98987.19
2023-02-09T10:20:47.845Z,98987.56
2023-02-09T10:23:24.656Z,98981.25
2023-02-09T10:26:03.212Z,98978.91
2023-02-09T10:28:33.986Z,98987.84
2023-02-09T10:31:03.132Z,98988.59
2023-02-09T10:33:31.987Z,98983.41
2023-02-09T10:36:01.138Z,98981.34
2023-02-09T10:38:33.243Z,98968.78
2023-02-09T10:41:01.601Z,98979.94
2023-02-09T10:43:31.218Z,98983.63
2023-02-09T10:46:01.481Z,98981.69
2023-02-09T10:48:30.211Z,98980.75
2023-02-09T10:50:59.084Z,98982.25
2023-02-09T10:53:28.102Z,98980.72
2023-02-09T10:56:00.665Z,98968.66
2023-02-09T10:58:29.721Z,98959.72
2023-02-09T11:01:03.130Z,98963.38
2023-02-09T11:03:31.543Z,98958.56
2023-02-09T11:06:01.346Z,98946.63
2023-02-09T11:08:38.713Z,98937.13
2023-02-09T11:11:08.106Z,98939.34
2023-02-09T11:13:42.259Z,98926.25
2023-02-09T11:16:21.314Z,98932.44
2023-02-09T11:18:52.270Z,98952.28
2023-02-09T11:21:22.624Z,98944.28
2023-02-09T11:23:52.369Z,98933.47
2023-02-09T11:26:25.311Z,98926.94
2023-02-09T11:28:55.372Z,98924.97
2023-02-09T11:31:42.351Z,98913.94
2023-02-09T11:34:19.735Z,98915.31
2023-02-09T11:36:58.480Z,98914.53
2023-02-09T11:39:29.681Z,98921.69
2023-02-09T11:42:17.469Z,98923.34
2023-02-09T11:44:47.631Z,98918.44
2023-02-09T11:47:19.736Z,98915.25
2023-02-09T11:49:49.769Z,98923.81
2023-02-09T11:52:19.770Z,98924.19
2023-02-09T11:54:49.167Z,98916.78
2023-02-09T11:57:22.041Z,98906.19
2023-02-09T11:59:56.441Z,98877.50
2023-02-09T12:02:35.212Z,98878.00
2023-02-09T12:05:03.389Z,98891.84
2023-02-09T12:07:33.230Z,98889.00
2023-02-09T12:10:04.995Z,98893.56
2023-02-09T12:12:35.892Z,98887.63
2023-02-09T12:15:15.318Z,98883.38
2023-02-09T12:17:47.040Z,98896.50
2023-02-09T12:20:26.101Z,98885.22
2023-02-09T12:22:57.404Z,98884.16
2023-02-09T12:26:00.772Z,98878.38
2023-02-09T12:28:47.609Z,98880.63
2023-02-09T12:31:20.466Z,98868.78
2023-02-09T12:34:28.582Z,98878.13
2023-02-09T12:37:27.871Z,98873.53
2023-02-09T12:40:18.535Z,98877.91
2023-02-09T12:42:47.092Z,98873.78
2023-02-09T12:45:34.920Z,98879.09
2023-02-09T12:48:03.691Z,98881.19
2023-02-09T12:50:47.101Z,98888.03
2023-02-09T12:53:48.151Z,98896.06
2023-02-09T12:56:31.866Z,98895.25
2023-02-09T12:59:20.000Z,98886.19
2023-02-09T13:02:14.040Z,98874.28
2023-02-09T13:04:45.633Z,98879.41
2023-02-09T13:07:19.525Z,98880.72
2023-02-09T13:09:50.636Z,98879.44
2023-02-09T13:12:32.705Z,98876.44
2023-02-09T13:15:07.272Z,98879.91
2023-02-09T13:17:40.196Z,98872.53
2023-02-09T13:20:48.285Z,98870.47
2023-02-09T13:23:24.287Z,98869.38
2023-02-09T13:25:52.254Z,98881.31
2023-02-09T13:28:23.025Z,98867.59
2023-02-09T13:30:54.218Z,98865.06
2023-02-09T13:33:28.054Z,98881.78
2023-02-09T13:36:08.912Z,98879.47
2023-02-09T13:38:41.372Z,98872.00
2023-02-09T13:41:09.877Z,98873.28
2023-02-09T13:43:40.354Z,98875.22
2023-02-09T13:46:29.601Z,98882.41
2023-02-09T13:49:10.342Z,98883.38
2023-02-09T13:51:38.325Z,98880.94
2023-02-09T13:54:07.731Z,98873.13
2023-02-09T13:56:36.339Z,98870.84
2023-02-09T13:59:04.539Z,98865.91
2023-02-09T14:01:33.883Z,98865.16
2023-02-09T14:04:05.654Z,98878.63
2023-02-09T14:06:36.641Z,98869.38
2023-02-09T14:09:05.550Z,98868.50
2023-02-09T14:11:42.727Z,98871.84
2023-02-09T14:14:12.789Z,98878.94
2023-02-09T14:16:52.555Z,98869.94
2023-02-09T14:19:31.259Z,98864.16
2023-02-09T14:22:02.372Z,98864.84
2023-02-09T14:24:41.125Z,98874.53
2023-02-09T14:27:20.889Z,98880.06
2023-02-09T14:29:49.430Z,98875.34
2023-02-09T14:32:32.287Z,98888.19
2023-02-09T14:35:11.631Z,98890.00
2023-02-09T14:37:39.739Z,98892.47
2023-02-09T14:40:17.508Z,98889.22
2023-02-09T14:43:02.416Z,98887.16
2023-02-09T14:45:33.168Z,98897.09
2023-02-09T14:48:01.529Z,98896.38
2023-02-09T14:50:29.622Z,98902.78
2023-02-09T14:53:05.265Z,98893.94
2023-02-09T14:55:40.472Z,98895.00
2023-02-09T14:58:19.388Z,98882.78
2023-02-09T15:00:59.541Z,98902.47
2023-02-09T15:03:27.610Z,98889.34
2023-02-09T15:05:57.723Z,98898.28
2023-02-09T15:08:26.717Z,98899.56
2023-02-09T15:10:55.365Z,98902.78
2023-02-09T15:13:24.688Z,98901.84
2023-02-09T15:15:53.322Z,98894.75
2023-02-09T15:18:37.027Z,98900.97
2023-02-09T15:21:13.004Z,98898.09
2023-02-09T15:23:43.693Z,98898.91
2023-02-09T15:26:12.875Z,98900.06
2023-02-09T15:28:45.857Z,98897.53
2023-02-09T15:31:17.608Z,98901.88
2023-02-09T15:33:46.045Z,98897.34
2023-02-09T15:36:14.838Z,98905.66
2023-02-09T15:38:43.004Z,98914.13
2023-02-09T15:41:36.134Z,98926.03
2023-02-09T15:44:23.513Z,98912.84
2023-02-09T15:47:08.899Z,98920.66
2023-02-09T15:49:36.835Z,98925.78
2023-02-09T15:52:07.784Z,98928.69
2023-02-09T15:54:39.006Z,98927.19
2023-02-09T15:57:25.001Z,98919.50
2023-02-09T16:00:07.072Z,98916.78
2023-02-09T16:02:36.538Z,98917.41
2023-02-09T16:05:04.667Z,98921.56
2023-02-09T16:07:32.788Z,98927.75
2023-02-09T16:10:00.987Z,98923.25
2023-02-09T16:12:28.906Z,98935.13
2023-02-09T16:14:58.231Z,98931.59
2023-02-09T16:17:26.443Z,98944.13
2023-02-09T16:19:54.479Z,98946.00
2023-02-09T16:22:25.230Z,98941.72
2023-02-09T16:24:53.456Z,98946.56
2023-02-09T16:27:24.205Z,98951.00
2023-02-09T16:29:52.151Z,98954.44
2023-02-09T16:32:23.072Z,98964.13
2023-02-09T16:34:51.314Z,98965.84
2023-02-09T16:37:23.229Z,98971.50
2023-02-09T16:39:51.464Z,98972.53
2023-02-09T16:42:19.464Z,98983.53
2023-02-09T16:44:47.422Z,98975.75
2023-02-09T16:47:17.635Z,98982.91
2023-02-09T16:49:49.969Z,98999.84
2023-02-09T16:52:19.278Z,99002.66
2023-02-09T16:54:49.290Z,98999.19
2023-02-09T16:57:18.171Z,99007.84
2023-02-09T16:59:46.161Z,99006.19
2023-02-09T17:02:36.756Z,99007.47
2023-02-09T17:05:15.000Z,99006.25
2023-02-09T17:07:54.005Z,99019.78
2023-02-09T17:10:25.363Z,99026.09
2023-02-09T17:12:53.876Z,99027.19
2023-02-09T17:15:30.190Z,99023.84
2023-02-09T17:18:02.157Z,99034.25
2023-02-09T17:20:33.293Z,99033.84
2023-02-09T17:23:01.583Z,99047.47
2023-02-09T17:25:29.686Z,99049.19
2023-02-09T17:27:57.754Z,99057.88
2023-02-09T17:30:26.004Z,99060.16
2023-02-09T17:32:58.742Z,99065.44
2023-02-09T17:35:53.009Z,99071.81
2023-02-09T17:38:21.063Z,99069.34
2023-02-09T17:40:49.205Z,99069.41
2023-02-09T17:43:17.188Z,99075.56
2023-02-09T17:45:49.242Z,99071.34
2023-02-09T17:48:17.525Z,99075.78
2023-02-09T17:50:45.982Z,99078.50
2023-02-09T17:53:14.926Z,99080.47
2023-02-09T17:55:51.004Z,99075.09
2023-02-09T17:58:19.122Z,99082.88
2023-02-09T18:00:48.957Z,99076.00
2023-02-09T18:03:18.477Z,99078.75
2023-02-09T18:05:46.710Z,99088.75
2023-02-09T18:08:14.738Z,99091.31
2023-02-09T18:10:42.909Z,99091.50
2023-02-09T18:13:14.580Z,99091.75
2023-02-09T18:15:43.194Z,99081.97
2023-02-09T18:18:11.343Z,99087.63
2023-02-09T18:20:39.351Z,99099.31
2023-02-09T18:23:07.304Z,99103.13
2023-02-09T18:25:37.565Z,99099.69
2023-02-09T19:04:10.997Z,99118.34
2023-02-09T19:06:39.490Z,99111.66
2023-02-09T19:09:07.657Z,99118.31
2023-02-09T19:11:35.643Z,99119.38
2023-02-09T19:14:20.686Z,99119.38
2023-02-09T19:16:48.965Z,99119.38
2023-02-09T19:19:19.073Z,99114.84
2023-02-09T19:21:47.636Z,99126.13
2023-02-09T19:24:15.575Z,99122.91
2023-02-09T19:26:43.759Z,99131.00
2023-02-09T19:29:11.657Z,99124.88
2023-02-09T19:31:40.306Z,99128.59
2023-02-09T19:34:08.369Z,99129.78
2023-02-09T19:36:37.949Z,99134.97
2023-02-09T19:39:06.341Z,99139.06
2023-02-09T19:41:34.351Z,99136.78
2023-02-09T19:44:02.301Z,99136.25
2023-02-09T19:46:30.563Z,99138.28
2023-02-09T19:48:58.520Z,99147.84
2023-02-09T19:51:26.463Z,99161.44
2023-02-09T19:53:56.024Z,99147.16
2023-02-09T19:56:24.369Z,99153.50
2023-02-09T19:58:52.494Z,99148.09
2023-02-09T20:01:20.469Z,99150.72
2023-02-09T20:03:49.563Z,99152.25
2023-02-09T20:06:17.760Z,99147.16
2023-02-09T20:08:45.658Z,99150.06
2023-02-09T20:11:17.302Z,99150.09
2023-02-09T20:13:45.556Z,99154.63
2023-02-09T20:16:15.413Z,99156.34
2023-02-09T20:18:43.582Z,99152.44
2023-02-09T20:21:11.539Z,99161.16
2023-02-09T20:23:39.530Z,99159.38
2023-02-09T20:26:11.586Z,99169.13
2023-02-09T20:28:41.236Z,99169.69
2023-02-09T20:31:09.253Z,99172.22
2023-02-09T20:33:37.879Z,99170.84
2023-02-09T20:36:06.243Z,99175.84
2023-02-09T20:38:34.603Z,99170.63
2023-02-09T20:41:02.720Z,99170.28
2023-02-09T20:43:48.117Z,99171.56
2023-02-09T20:46:38.597Z,99174.53
2023-02-09T20:49:06.535Z,99181.38
2023-02-09T20:51:34.540Z,99177.88
2023-02-09T20:54:02.637Z,99183.88
2023-02-09T20:56:30.641Z,99178.44
2023-02-09T20:58:58.564Z,99176.78
2023-02-09T21:01:27.956Z,99189.00
2023-02-09T21:03:56.678Z,99191.25
2023-02-09T21:06:24.695Z,99199.16
2023-02-09T21:08:52.630Z,99189.16
2023-02-09T21:11:20.678Z,99195.31
2023-02-09T21:13:49.015Z,99199.31
2023-02-09T21:16:17.137Z,99192.91
2023-02-09T21:18:46.555Z,99201.25
2023-02-09T21:21:16.857Z,99205.06
2023-02-09T21:23:45.204Z,99204.03
2023-02-09T21:26:14.477Z,99206.63
2023-02-09T21:28:43.720Z,99198.41
2023-02-09T21:31:12.018Z,99199.84
2023-02-09T21:33:39.960Z,99191.97
2023-02-09T21:36:09.840Z,99197.22
2023-02-09T21:38:41.446Z,99191.34
2023-02-09T21:41:30.533Z,99186.69
2023-02-09T21:43:58.556Z,99186.91
2023-02-09T21:46:26.471Z,99189.81
2023-02-09T21:48:54.603Z,99194.03
2023-02-09T21:51:23.999Z,99203.63
2023-02-09T21:53:52.220Z,99201.44
2023-02-09T21:56:20.134Z,99198.53
2023-02-09T21:58:48.153Z,99197.50
2023-02-09T22:01:16.125Z,99207.75
2023-02-09T22:03:44.659Z,99195.50
2023-02-09T22:06:12.590Z,99198.69
2023-02-09T22:08:42.494Z,99193.19
2023-02-09T22:11:11.242Z,99196.56
2023-02-09T22:13:39.615Z,99200.66
2023-02-09T22:16:08.077Z,99199.25
2023-02-09T22:18:36.082Z,99205.47
2023-02-09T22:21:07.453Z,99203.28
2023-02-09T22:23:35.401Z,99207.44
2023-02-09T22:26:05.557Z,99210.09
2023-02-09T22:28:36.164Z,99224.25
2023-02-09T22:31:08.219Z,99231.19
2023-02-09T22:33:36.205Z,99238.03
2023-02-09T22:36:07.608Z,99238.59
2023-02-09T22:38:35.493Z,99249.41
2023-02-09T22:41:08.232Z,99261.13
2023-02-09T22:43:36.379Z,99260.59
2023-02-09T22:46:04.506Z,99263.72
2023-02-09T22:48:32.418Z,99263.50
2023-02-09T22:51:00.719Z,99262.25
2023-02-09T22:53:28.734Z,99273.72
2023-02-09T22:55:56.704Z,99281.78
2023-02-09T22:58:26.085Z,99285.53
2023-02-09T23:00:54.077Z,99292.09
2023-02-09T23:03:22.039Z,99299.66
2023-02-09T23:05:51.265Z,99299.63
2023-02-09T23:08:20.043Z,99305.50
2023-02-09T23:10:48.633Z,99304.56
2023-02-09T23:13:16.648Z,99302.97
2023-02-09T23:15:46.734Z,99298.25
2023-02-09T23:18:14.981Z,99296.75
2023-02-09T23:20:43.089Z,99298.06
2023-02-09T23:23:11.468Z,99301.41
2023-02-09T23:25:39.534Z,99303.91
2023-02-09T23:28:07.702Z,99306.00
2023-02-09T23:30:35.792Z,99315.31
2023-02-09T23:33:05.294Z,99307.81
2023-02-09T23:35:33.325Z,99316.09
2023-02-09T23:38:01.825Z,99311.94
2023-02-09T23:40:30.355Z,99313.47
2023-02-09T23:42:58.310Z,99319.00
2023-02-09T23:45:26.909Z,99324.16
2023-02-09T23:47:54.939Z,99329.41
2023-02-09T23:50:24.397Z,99322.97
2023-02-09T23:52:52.480Z,99331.06
2023-02-09T23:55:20.564Z,99331.56
2023-02-09T23:57:48.701Z,99341.25
